Crosby, Minnesota
Current Conditions -  °F | °C
As of 12:53 AM on Saturday 01 Nov 2014 (Local Time) from KBRD Reporting Station
Clear Clear  
Wind Chill: 15°   Ceiling: Unl
Heat Index: 23°   Visibility: 10mi
Dew Point: 16°   Wind: 7mph
Humidity: 74%   Direction: 180°S
Pressure: 30.42"   Gusts: NA
Location:  46.48°N, 93.96°W
Report Text: KBRD 010553Z AUTO 18006KT 10SM CLR M05/M09 A3042 RMK AO2 SLP322 T10501089 11017 21072 400331072 58009
Loading
Personal Weather Stations






























Interactive Weather Map
Tropical Storm Tracking
New forecast layout! Learn more

10-Day Weather Forecast

Advertisements
Track Severe Weather on mobile